Time;durP1;ratioP1;P1;durP2;ratioP2;P2;SDS_P1;SDS_P2;PMS_P1;PMS_P2;Temp;Humidity;BMP_temperature;BMP_pressure;BME280_temperature;BME280_humidity;BME280_pressure;Samples;Min_cycle;Max_cycle;Signal;HPM_P1;HPM_P2
2022/09/04 00:01:19;;;;;;;4.38;1.65;;;16.30;65.70;;;;;;5026151;28;20030;-46
2022/09/04 00:04:37;;;;;;;3.45;1.30;;;16.20;65.80;;;;;;5021610;28;20081;-46
2022/09/04 00:07:36;;;;;;;6.55;1.48;;;16.20;65.40;;;;;;5044429;28;20032;-46
2022/09/04 00:10:28;;;;;;;3.40;1.40;;;16.20;65.60;;;;;;5020695;28;20025;-49
2022/09/04 00:13:07;;;;;;;5.80;1.55;;;16.20;65.70;;;;;;5023649;28;20033;-46
2022/09/04 00:15:42;;;;;;;3.50;1.50;;;16.10;65.70;;;;;;5020228;28;20027;-46
2022/09/04 00:18:24;;;;;;;4.28;1.42;;;16.20;65.00;;;;;;5017019;28;20068;-46
2022/09/04 00:21:07;;;;;;;3.63;1.30;;;16.10;64.70;;;;;;5029413;28;20049;-46
2022/09/04 00:23:40;;;;;;;6.00;1.40;;;16.10;64.60;;;;;;5014035;28;20052;-48
2022/09/04 00:26:33;;;;;;;4.57;1.67;;;16.10;65.20;;;;;;5031376;28;20029;-46
2022/09/04 00:29:11;;;;;;;4.85;1.60;;;16.00;65.50;;;;;;5016222;28;20387;-47
2022/09/04 00:31:48;;;;;;;4.18;1.08;;;16.00;65.60;;;;;;5018761;28;20044;-46
2022/09/04 00:34:35;;;;;;;3.38;1.40;;;16.00;65.40;;;;;;5012104;28;20040;-46
2022/09/04 00:37:05;;;;;;;4.78;1.60;;;16.00;65.50;;;;;;5028869;28;20040;-46
2022/09/04 00:39:44;;;;;;;3.92;1.45;;;16.00;65.00;;;;;;5011083;28;20026;-48
2022/09/04 00:42:50;;;;;;;5.87;1.73;;;16.00;65.00;;;;;;5012808;28;20033;-47
2022/09/04 00:45:50;;;;;;;4.28;1.40;;;15.90;65.00;;;;;;5022628;28;20050;-47
2022/09/04 00:48:39;;;;;;;2.95;1.30;;;16.00;64.20;;;;;;5020078;28;20386;-46
2022/09/04 00:51:29;;;;;;;3.15;1.15;;;15.90;64.00;;;;;;5031248;28;20021;-46
2022/09/04 00:54:17;;;;;;;6.07;1.60;;;15.90;64.20;;;;;;5023192;28;20030;-46
2022/09/04 00:57:15;;;;;;;4.75;1.20;;;16.00;64.10;;;;;;5029199;28;20422;-47
2022/09/04 01:00:07;;;;;;;2.63;1.55;;;16.00;64.40;;;;;;5020927;28;20029;-47
2022/09/04 01:03:12;;;;;;;2.35;1.33;;;16.00;64.10;;;;;;5011609;28;20103;-52
2022/09/04 01:06:15;;;;;;;3.25;1.10;;;16.00;64.50;;;;;;5022180;28;20039;-46
2022/09/04 01:09:05;;;;;;;2.22;1.20;;;15.90;64.40;;;;;;5028151;28;20030;-46
2022/09/04 01:12:09;;;;;;;2.20;1.00;;;15.90;64.80;;;;;;5029920;28;20025;-49
2022/09/04 01:14:54;;;;;;;2.38;1.17;;;15.90;65.10;;;;;;5029534;28;20026;-46
2022/09/04 01:17:42;;;;;;;5.40;1.75;;;15.90;65.30;;;;;;5022838;28;20652;-48
2022/09/04 01:20:26;;;;;;;4.57;1.73;;;15.90;65.60;;;;;;5010122;28;20040;-46
2022/09/04 01:23:17;;;;;;;2.58;1.17;;;15.90;65.80;;;;;;5010342;28;20113;-46
2022/09/04 01:26:05;;;;;;;4.57;1.50;;;15.90;65.90;;;;;;5022756;28;20033;-47
2022/09/04 01:29:09;;;;;;;5.78;1.27;;;15.90;66.20;;;;;;5029227;28;20035;-47
2022/09/04 01:31:53;;;;;;;6.18;1.33;;;15.80;66.80;;;;;;5022092;28;20037;-47
2022/09/04 01:34:40;;;;;;;3.72;1.35;;;15.80;66.80;;;;;;5017832;28;20057;-46
2022/09/04 01:37:25;;;;;;;4.93;1.60;;;15.80;66.90;;;;;;5027260;28;20040;-47
2022/09/04 01:40:07;;;;;;;4.15;1.85;;;15.80;67.40;;;;;;5028689;28;20680;-48
2022/09/04 01:42:58;;;;;;;4.03;1.20;;;15.70;67.40;;;;;;5027016;28;20600;-46
2022/09/04 01:46:07;;;;;;;3.72;1.77;;;15.70;67.20;;;;;;5016122;28;20379;-46
2022/09/04 01:49:00;;;;;;;4.38;1.10;;;15.60;66.70;;;;;;5013005;28;20048;-46
2022/09/04 01:51:47;;;;;;;6.95;2.08;;;15.60;66.40;;;;;;5025468;28;20087;-46
2022/09/04 01:54:27;;;;;;;5.18;1.35;;;15.60;66.10;;;;;;5020594;28;20088;-47
2022/09/04 01:57:21;;;;;;;3.47;1.52;;;15.70;66.00;;;;;;5018947;28;20045;-46
2022/09/04 02:00:10;;;;;;;8.52;1.50;;;15.70;66.00;;;;;;5009049;28;20075;-47
2022/09/04 02:02:54;;;;;;;6.05;1.30;;;15.70;66.00;;;;;;5026709;28;20412;-46
2022/09/04 02:05:44;;;;;;;5.80;1.25;;;15.60;66.00;;;;;;5016162;28;20373;-47
2022/09/04 02:08:34;;;;;;;3.15;1.23;;;15.60;66.10;;;;;;5013008;28;20044;-47
2022/09/04 02:11:25;;;;;;;4.80;1.30;;;15.60;66.20;;;;;;5029807;28;20026;-46
2022/09/04 02:14:23;;;;;;;4.70;1.42;;;15.60;66.40;;;;;;5025952;28;20355;-46
2022/09/04 02:17:21;;;;;;;2.97;1.58;;;15.60;66.20;;;;;;5021750;28;20463;-49
2022/09/04 02:20:10;;;;;;;3.08;1.27;;;15.60;65.80;;;;;;5011702;28;20037;-47
2022/09/04 02:23:04;;;;;;;5.00;1.38;;;15.60;65.80;;;;;;5013068;28;20029;-50
2022/09/04 02:25:50;;;;;;;1.95;0.98;;;15.60;66.00;;;;;;5009510;28;20038;-47
2022/09/04 02:28:49;;;;;;;4.95;1.50;;;15.60;66.00;;;;;;5009493;28;20030;-46
2022/09/04 02:31:53;;;;;;;2.38;1.23;;;15.60;65.90;;;;;;5008892;28;20069;-46
2022/09/04 02:34:37;;;;;;;3.47;1.40;;;15.60;66.20;;;;;;5015409;28;20459;-46
2022/09/04 02:37:15;;;;;;;4.88;1.48;;;15.50;66.20;;;;;;5021307;28;20030;-47
2022/09/04 02:40:02;;;;;;;4.03;1.20;;;15.50;66.10;;;;;;5009202;28;20026;-46
2022/09/04 02:43:10;;;;;;;4.13;1.20;;;15.50;66.10;;;;;;5009227;28;20029;-46
2022/09/04 02:46:09;;;;;;;3.63;1.05;;;15.50;66.20;;;;;;5010308;28;20053;-48
2022/09/04 02:48:46;;;;;;;3.03;1.75;;;15.40;66.30;;;;;;5015074;28;20108;-47
2022/09/04 02:51:47;;;;;;;3.92;1.45;;;15.40;66.20;;;;;;5024046;28;20033;-46
2022/09/04 02:54:39;;;;;;;4.30;1.55;;;15.40;66.40;;;;;;5010886;28;20053;-46
2022/09/04 02:57:30;;;;;;;4.32;1.60;;;15.40;66.50;;;;;;5011259;28;20031;-46
2022/09/04 03:00:18;;;;;;;3.03;1.20;;;15.40;66.80;;;;;;5015216;28;20041;-46
2022/09/04 03:03:17;;;;;;;3.10;1.15;;;15.40;66.90;;;;;;5043430;28;20026;-46
2022/09/04 03:06:06;;;;;;;3.83;1.33;;;15.40;67.00;;;;;;5010952;28;20132;-46
2022/09/04 03:08:58;;;;;;;2.95;1.45;;;15.40;67.20;;;;;;5014576;28;20511;-46
2022/09/04 03:11:46;;;;;;;5.10;2.00;;;15.30;67.30;;;;;;5030689;28;20025;-46
2022/09/04 03:14:33;;;;;;;5.05;1.40;;;15.30;67.60;;;;;;5018580;28;20347;-46
2022/09/04 03:17:28;;;;;;;3.00;1.55;;;15.20;67.50;;;;;;5022743;28;20739;-46
2022/09/04 03:20:05;;;;;;;3.28;1.20;;;15.20;68.00;;;;;;5018990;28;20120;-46
2022/09/04 03:22:53;;;;;;;3.10;1.15;;;15.20;68.10;;;;;;5024850;28;20092;-46
2022/09/04 03:25:45;;;;;;;2.53;1.30;;;15.20;68.60;;;;;;5012257;28;20042;-46
2022/09/04 03:28:29;;;;;;;4.20;1.40;;;15.10;68.50;;;;;;5011931;28;20030;-46
2022/09/04 03:30:57;;;;;;;2.65;1.40;;;15.10;68.70;;;;;;5022626;28;20128;-47
2022/09/04 03:33:35;;;;;;;4.22;1.50;;;15.10;68.40;;;;;;5012800;28;20014;-46
2022/09/04 03:36:20;;;;;;;2.28;1.33;;;15.00;68.80;;;;;;5016008;28;20065;-46
2022/09/04 03:39:32;;;;;;;4.28;1.23;;;15.10;68.70;;;;;;5012494;28;20029;-46
2022/09/04 03:42:34;;;;;;;2.45;1.35;;;15.00;68.70;;;;;;5012469;28;20044;-46
2022/09/04 03:45:21;;;;;;;3.38;1.08;;;15.00;68.80;;;;;;5011819;28;20065;-47
2022/09/04 03:48:15;;;;;;;3.90;1.52;;;15.00;68.80;;;;;;5028198;28;20026;-46
2022/09/04 03:51:14;;;;;;;4.60;1.50;;;15.00;69.30;;;;;;5013264;28;20351;-46
2022/09/04 03:54:00;;;;;;;8.52;1.70;;;15.00;69.40;;;;;;5011744;28;20042;-46
2022/09/04 03:57:04;;;;;;;3.60;1.40;;;15.00;69.30;;;;;;5011094;28;20113;-47
2022/09/04 04:00:00;;;;;;;2.88;1.23;;;14.90;69.50;;;;;;5023234;28;20438;-47
2022/09/04 04:02:37;;;;;;;3.05;1.52;;;14.90;69.90;;;;;;5013328;28;20029;-46
2022/09/04 04:05:24;;;;;;;4.32;1.40;;;14.90;70.20;;;;;;5011196;28;20030;-46
2022/09/04 04:08:27;;;;;;;2.03;1.15;;;14.80;70.20;;;;;;5027580;28;20435;-49
2022/09/04 04:11:24;;;;;;;4.38;1.55;;;14.80;70.70;;;;;;5026598;28;20044;-46
2022/09/04 04:13:50;;;;;;;4.35;1.80;;;14.80;70.60;;;;;;5010872;28;20083;-49
2022/09/04 04:16:39;;;;;;;2.53;1.38;;;14.80;70.80;;;;;;5012564;28;20464;-46
2022/09/04 04:19:17;;;;;;;5.00;1.95;;;14.80;70.90;;;;;;5025227;28;20041;-46
2022/09/04 04:22:01;;;;;;;4.82;1.70;;;14.80;70.60;;;;;;5027189;28;20533;-46
2022/09/04 04:24:37;;;;;;;3.33;1.63;;;14.80;70.70;;;;;;5022905;28;20025;-46
2022/09/04 04:27:41;;;;;;;4.57;1.80;;;14.70;70.90;;;;;;5011816;28;20026;-46
2022/09/04 04:30:28;;;;;;;3.30;1.52;;;14.70;70.90;;;;;;5010589;28;20030;-47
2022/09/04 04:33:24;;;;;;;7.72;1.58;;;14.70;70.70;;;;;;5028850;28;20049;-49
2022/09/04 04:36:16;;;;;;;4.93;1.73;;;14.60;70.80;;;;;;5011827;28;20459;-47
2022/09/04 04:38:56;;;;;;;3.38;1.63;;;14.60;71.00;;;;;;5024686;28;20048;-49
2022/09/04 04:41:30;;;;;;;4.88;1.67;;;14.60;70.70;;;;;;5010423;28;20049;-46
2022/09/04 04:44:02;;;;;;;3.85;1.58;;;14.60;70.90;;;;;;5011254;28;20057;-47
2022/09/04 04:47:06;;;;;;;2.90;1.40;;;14.60;71.10;;;;;;5021839;28;20059;-47
2022/09/04 04:50:23;;;;;;;3.85;1.70;;;14.60;71.00;;;;;;5011403;28;20042;-46
2022/09/04 04:52:49;;;;;;;3.58;1.50;;;14.60;70.90;;;;;;5030131;28;20356;-47
2022/09/04 04:55:32;;;;;;;4.93;1.42;;;14.60;71.10;;;;;;5016671;28;20037;-48
2022/09/04 04:58:48;;;;;;;13.75;2.17;;;14.60;71.10;;;;;;5015763;28;20089;-46
2022/09/04 05:01:43;;;;;;;3.80;1.63;;;14.60;71.10;;;;;;5026770;28;20048;-46
2022/09/04 05:04:24;;;;;;;6.63;1.75;;;14.60;71.30;;;;;;5010428;28;20041;-46
2022/09/04 05:07:04;;;;;;;3.05;1.33;;;14.60;71.20;;;;;;5026051;28;20081;-49
2022/09/04 05:09:35;;;;;;;2.55;1.38;;;14.60;71.40;;;;;;5019603;28;20048;-48
2022/09/04 05:12:19;;;;;;;5.18;1.48;;;14.60;71.20;;;;;;5010451;28;20100;-46
2022/09/04 05:15:01;;;;;;;8.18;2.67;;;14.60;71.10;;;;;;5028182;28;20037;-46
2022/09/04 05:17:50;;;;;;;3.58;1.40;;;14.60;70.90;;;;;;5016712;28;20037;-48
2022/09/04 05:20:15;;;;;;;3.85;1.85;;;14.60;70.90;;;;;;5019743;28;20451;-46
2022/09/04 05:23:19;;;;;;;3.78;1.67;;;14.60;70.90;;;;;;5011180;28;20034;-46
2022/09/04 05:26:10;;;;;;;3.60;1.42;;;14.60;70.70;;;;;;5008570;28;20068;-46
2022/09/04 05:28:59;;;;;;;2.42;1.38;;;14.60;70.80;;;;;;5025845;28;20033;-48
2022/09/04 05:31:52;;;;;;;5.07;1.60;;;14.70;70.80;;;;;;5010799;28;20029;-49
2022/09/04 05:34:51;;;;;;;5.93;1.67;;;14.70;70.30;;;;;;5010622;28;20034;-48
2022/09/04 05:37:41;;;;;;;2.72;1.25;;;14.70;70.40;;;;;;5012329;28;20450;-48
2022/09/04 05:40:31;;;;;;;2.63;1.33;;;14.80;70.40;;;;;;5013979;28;20045;-47
2022/09/04 05:43:06;;;;;;;5.75;1.92;;;14.80;70.10;;;;;;5010313;28;20029;-48
2022/09/04 05:45:53;;;;;;;4.25;1.90;;;14.80;70.20;;;;;;5010481;28;20106;-48
2022/09/04 05:48:25;;;;;;;3.85;1.65;;;14.80;70.00;;;;;;5028823;28;20129;-46
2022/09/04 05:51:24;;;;;;;3.38;1.85;;;14.90;69.90;;;;;;5009546;28;20036;-46
2022/09/04 05:54:00;;;;;;;6.83;2.23;;;14.90;69.80;;;;;;5016840;28;20038;-46
2022/09/04 05:56:53;;;;;;;5.95;1.40;;;14.90;69.80;;;;;;5019737;28;20746;-46
2022/09/04 05:59:42;;;;;;;4.88;2.17;;;14.90;69.80;;;;;;5020770;28;20034;-48
2022/09/04 06:02:49;;;;;;;3.25;1.63;;;15.00;69.30;;;;;;5012710;28;20022;-51
2022/09/04 06:05:44;;;;;;;3.50;1.55;;;15.10;68.70;;;;;;5036024;28;20042;-46
2022/09/04 06:08:10;;;;;;;5.60;1.77;;;15.20;68.90;;;;;;5021895;28;20052;-46
2022/09/04 06:10:45;;;;;;;4.40;1.92;;;15.10;68.60;;;;;;5015972;28;20025;-46
2022/09/04 06:13:22;;;;;;;3.65;1.70;;;15.20;68.50;;;;;;5019538;28;20025;-46
2022/09/04 06:16:03;;;;;;;3.83;1.55;;;15.20;68.20;;;;;;5023905;28;20032;-46
2022/09/04 06:18:38;;;;;;;3.22;1.80;;;15.20;68.60;;;;;;5030730;28;20458;-46
2022/09/04 06:21:41;;;;;;;5.20;1.95;;;15.30;68.40;;;;;;5031515;28;20046;-47
2022/09/04 06:24:47;;;;;;;4.97;1.88;;;15.30;68.20;;;;;;5013344;28;20035;-47
2022/09/04 06:28:09;;;;;;;6.15;1.58;;;15.40;68.80;;;;;;5012338;28;20025;-46
2022/09/04 06:31:02;;;;;;;4.32;1.80;;;15.40;68.10;;;;;;5008861;28;20037;-47
2022/09/04 06:33:40;;;;;;;4.30;2.10;;;15.40;68.00;;;;;;5031292;28;20508;-48
2022/09/04 06:36:13;;;;;;;3.95;1.75;;;15.40;68.10;;;;;;5034827;28;20020;-50
2022/09/04 06:39:08;;;;;;;4.45;1.60;;;15.50;68.10;;;;;;5028907;28;20025;-48
2022/09/04 06:41:45;;;;;;;3.08;1.65;;;15.60;67.90;;;;;;5031987;28;20547;-47
2022/09/04 06:44:22;;;;;;;2.58;1.50;;;15.60;67.80;;;;;;5037665;28;20130;-46
2022/09/04 06:47:05;;;;;;;4.60;1.55;;;15.80;67.20;;;;;;5029559;28;20098;-46
2022/09/04 06:49:37;;;;;;;5.55;2.00;;;15.80;67.40;;;;;;5032962;28;20022;-46
2022/09/04 06:52:32;;;;;;;2.70;1.63;;;15.90;67.00;;;;;;5014835;28;20057;-46
2022/09/04 06:55:08;;;;;;;5.93;1.60;;;15.90;66.70;;;;;;5029693;28;20049;-46
2022/09/04 06:58:07;;;;;;;4.70;2.05;;;15.90;66.80;;;;;;5034431;28;20065;-49
2022/09/04 07:00:46;;;;;;;3.42;1.90;;;15.90;66.80;;;;;;5033999;28;20406;-47
2022/09/04 07:03:27;;;;;;;3.95;1.83;;;16.00;67.30;;;;;;5023089;28;20050;-48
2022/09/04 07:06:01;;;;;;;3.40;1.73;;;16.00;67.50;;;;;;5027007;28;20053;-46
2022/09/04 07:08:41;;;;;;;4.93;2.10;;;16.10;67.30;;;;;;5020746;28;20029;-47
2022/09/04 07:11:37;;;;;;;5.55;2.00;;;16.20;66.90;;;;;;5014801;28;20041;-46
2022/09/04 07:14:18;;;;;;;4.47;2.38;;;16.20;66.90;;;;;;5010138;28;20030;-48
2022/09/04 07:17:03;;;;;;;4.90;2.22;;;16.30;66.90;;;;;;5016094;28;20038;-49
2022/09/04 07:19:53;;;;;;;4.38;1.90;;;16.40;66.50;;;;;;5035041;28;20033;-48
2022/09/04 07:22:52;;;;;;;6.03;2.05;;;16.40;66.80;;;;;;5012658;28;20640;-46
2022/09/04 07:25:55;;;;;;;5.27;2.20;;;16.50;66.30;;;;;;5026030;28;20025;-48
2022/09/04 07:29:00;;;;;;;3.33;1.90;;;16.50;65.80;;;;;;5010266;28;20033;-46
2022/09/04 07:31:37;;;;;;;5.47;2.20;;;16.60;65.90;;;;;;5019046;28;20489;-47
2022/09/04 07:34:47;;;;;;;5.25;2.42;;;16.80;65.80;;;;;;5032749;28;20033;-46
2022/09/04 07:37:26;;;;;;;5.53;2.30;;;16.90;65.10;;;;;;5027618;28;20036;-46
2022/09/04 07:40:02;;;;;;;4.97;2.42;;;17.10;65.20;;;;;;5027821;28;20029;-47
2022/09/04 07:42:33;;;;;;;3.67;1.70;;;17.40;64.50;;;;;;5032599;28;20083;-48
2022/09/04 07:45:05;;;;;;;3.58;1.77;;;17.90;62.90;;;;;;5035719;28;20512;-47
2022/09/04 07:47:54;;;;;;;4.72;2.30;;;18.30;62.30;;;;;;5024981;28;20018;-46
2022/09/04 07:50:28;;;;;;;3.17;1.92;;;18.90;60.70;;;;;;5018736;28;20047;-47
2022/09/04 07:53:02;;;;;;;5.55;2.20;;;19.20;60.00;;;;;;5015144;28;20065;-46
2022/09/04 07:55:33;;;;;;;5.57;2.15;;;19.60;57.80;;;;;;5031718;28;20446;-48
2022/09/04 07:58:06;;;;;;;5.05;2.45;;;20.00;56.90;;;;;;5028288;28;20044;-46
2022/09/04 08:00:53;;;;;;;3.40;1.92;;;20.40;56.20;;;;;;5028320;28;20026;-47
2022/09/04 08:03:27;;;;;;;6.35;1.95;;;20.60;55.20;;;;;;5039103;28;20562;-47
2022/09/04 08:06:14;;;;;;;3.60;2.20;;;20.70;55.30;;;;;;5024701;28;20029;-49
2022/09/04 08:09:16;;;;;;;4.13;2.20;;;20.90;55.10;;;;;;5014573;28;20605;-46
2022/09/04 08:12:13;;;;;;;6.00;2.05;;;21.20;53.40;;;;;;5031468;28;20017;-47
2022/09/04 08:14:52;;;;;;;6.25;2.17;;;21.00;53.50;;;;;;5022824;28;20343;-46
2022/09/04 08:17:46;;;;;;;6.03;2.10;;;21.00;54.20;;;;;;5048429;28;20029;-47
2022/09/04 08:20:18;;;;;;;4.18;2.50;;;21.30;53.60;;;;;;5018610;28;20079;-47
2022/09/04 08:23:23;;;;;;;4.13;2.72;;;21.40;52.30;;;;;;5025870;28;20024;-47
2022/09/04 08:26:13;;;;;;;7.07;2.80;;;21.80;52.30;;;;;;5024098;28;20466;-47
2022/09/04 08:29:14;;;;;;;5.10;2.42;;;21.90;51.60;;;;;;5031847;28;20030;-49
2022/09/04 08:32:02;;;;;;;5.75;2.53;;;22.00;51.70;;;;;;5030784;28;20112;-46
2022/09/04 08:34:53;;;;;;;5.22;2.83;;;22.20;52.50;;;;;;5013992;28;20053;-47
2022/09/04 08:37:28;;;;;;;5.10;2.25;;;22.40;50.80;;;;;;5027567;28;20037;-49
2022/09/04 08:40:35;;;;;;;5.47;2.13;;;22.70;51.70;;;;;;5020662;28;20072;-48
2022/09/04 08:43:34;;;;;;;6.22;2.40;;;23.00;50.10;;;;;;4955768;28;20031;-48
2022/09/04 08:46:02;;;;;;;7.30;2.78;;;23.20;50.60;;;;;;5006823;28;20129;-48
2022/09/04 08:48:40;;;;;;;6.18;2.65;;;23.30;50.10;;;;;;5022973;28;20039;-47
2022/09/04 08:51:32;;;;;;;5.10;2.10;;;23.60;49.50;;;;;;5026133;28;20049;-47
2022/09/04 08:54:19;;;;;;;5.10;2.53;;;23.30;49.10;;;;;;5016027;28;20065;-47
2022/09/04 08:56:52;;;;;;;3.97;2.35;;;23.20;50.10;;;;;;5040753;28;20465;-48
2022/09/04 08:59:20;;;;;;;4.45;2.17;;;23.30;51.00;;;;;;5011621;28;20501;-47
2022/09/04 09:01:51;;;;;;;4.60;2.67;;;23.60;49.60;;;;;;5018725;28;20240;-48
2022/09/04 09:04:58;;;;;;;5.38;2.38;;;23.60;49.70;;;;;;5017431;28;20059;-47
2022/09/04 09:07:45;;;;;;;7.63;3.08;;;23.60;51.20;;;;;;5020017;28;20116;-47
2022/09/04 09:10:35;;;;;;;5.07;2.45;;;23.60;49.50;;;;;;5012292;28;20045;-52
2022/09/04 09:13:13;;;;;;;4.30;2.38;;;23.20;50.20;;;;;;5023429;28;20354;-51
2022/09/04 09:16:02;;;;;;;6.20;2.57;;;23.20;50.00;;;;;;5032420;28;20033;-52
2022/09/04 09:19:05;;;;;;;6.03;2.77;;;23.20;49.90;;;;;;5044116;28;20031;-47
2022/09/04 09:21:54;;;;;;;9.38;3.08;;;23.10;51.50;;;;;;5045595;28;20285;-47
2022/09/04 09:24:22;;;;;;;7.43;2.75;;;22.90;53.30;;;;;;5040626;28;20049;-47
2022/09/04 09:27:14;;;;;;;4.78;2.53;;;23.20;50.40;;;;;;5009855;28;20104;-48
2022/09/04 09:30:06;;;;;;;5.90;2.67;;;23.30;51.40;;;;;;5009451;28;20092;-49
2022/09/04 09:32:41;;;;;;;6.07;2.33;;;23.50;50.70;;;;;;5022689;28;20435;-47
2022/09/04 09:35:54;;;;;;;5.40;2.63;;;23.60;50.30;;;;;;5028915;28;20463;-48
2022/09/04 09:38:35;;;;;;;5.22;2.17;;;23.80;51.50;;;;;;5015781;28;20029;-48
2022/09/04 09:41:09;;;;;;;10.63;3.28;;;24.10;51.20;;;;;;5009333;28;20515;-47
2022/09/04 09:44:05;;;;;;;6.47;2.60;;;24.20;50.90;;;;;;5019861;28;20045;-48
2022/09/04 09:46:38;;;;;;;3.67;2.40;;;24.30;54.00;;;;;;5013551;28;20042;-48
2022/09/04 09:49:19;;;;;;;7.10;4.68;;;24.50;52.30;;;;;;5011637;28;20351;-48
2022/09/04 09:52:12;;;;;;;4.28;2.92;;;24.20;51.90;;;;;;5016972;28;20034;-49
2022/09/04 09:54:56;;;;;;;7.13;2.72;;;24.10;52.60;;;;;;5022976;28;20347;-49
2022/09/04 09:57:59;;;;;;;6.93;3.25;;;24.00;51.90;;;;;;5019813;28;20037;-49
2022/09/04 10:00:47;;;;;;;5.47;2.28;;;23.70;51.50;;;;;;5013562;28;20739;-48
2022/09/04 10:03:46;;;;;;;4.67;2.83;;;23.60;54.00;;;;;;5024166;28;20029;-51
2022/09/04 10:06:51;;;;;;;5.85;2.80;;;23.50;52.80;;;;;;5008631;28;20116;-50
2022/09/04 10:09:29;;;;;;;3.30;2.25;;;23.70;53.50;;;;;;5009635;28;20029;-50
2022/09/04 10:12:22;;;;;;;7.32;2.72;;;23.70;52.70;;;;;;5012441;28;20025;-51
2022/09/04 10:14:59;;;;;;;5.72;2.55;;;23.70;52.30;;;;;;5017338;28;20025;-51
2022/09/04 10:17:52;;;;;;;5.18;2.70;;;23.70;54.00;;;;;;5012542;28;20056;-48
2022/09/04 10:20:24;;;;;;;4.35;2.58;;;23.80;54.90;;;;;;5020400;28;20043;-49
2022/09/04 10:23:14;;;;;;;8.15;2.88;;;24.00;53.90;;;;;;5026839;28;20632;-48
2022/09/04 10:25:45;;;;;;;5.38;3.03;;;24.20;54.40;;;;;;5028166;28;20767;-51
2022/09/04 10:28:41;;;;;;;8.60;3.08;;;24.40;54.20;;;;;;5018631;28;20116;-51
2022/09/04 10:31:34;;;;;;;4.88;2.45;;;24.70;54.30;;;;;;5019540;28;20022;-47
2022/09/04 10:34:27;;;;;;;6.47;3.35;;;24.80;52.10;;;;;;5018150;28;20061;-51
2022/09/04 10:36:59;;;;;;;5.80;2.92;;;24.60;53.70;;;;;;5025454;28;20460;-48
2022/09/04 10:42:27;;;;;;;7.38;3.22;;;24.40;53.00;;;;;;5009008;28;20392;-49
2022/09/04 10:45:15;;;;;;;5.25;2.42;;;24.40;53.10;;;;;;5007997;28;20049;-49
2022/09/04 10:48:12;;;;;;;3.75;2.10;;;24.40;52.40;;;;;;5017469;28;20061;-48
2022/09/04 10:51:08;;;;;;;4.90;2.53;;;24.40;53.60;;;;;;5010300;28;20493;-48
2022/09/04 10:53:58;;;;;;;5.93;2.95;;;24.40;52.70;;;;;;5012649;28;20083;-49
2022/09/04 10:56:28;;;;;;;6.65;2.58;;;24.50;53.10;;;;;;5020148;28;20740;-51
2022/09/04 10:59:01;;;;;;;6.68;4.10;;;24.30;53.80;;;;;;5018739;28;20359;-47
2022/09/04 11:02:02;;;;;;;8.32;2.85;;;24.40;52.70;;;;;;5017238;28;20032;-47
2022/09/04 11:05:05;;;;;;;4.13;2.95;;;24.30;54.30;;;;;;5027160;28;20052;-48
2022/09/04 11:07:52;;;;;;;5.80;3.10;;;24.40;53.90;;;;;;5029048;28;20032;-48
2022/09/04 11:10:53;;;;;;;6.03;2.60;;;24.50;52.40;;;;;;5027036;28;20026;-49
2022/09/04 11:13:22;;;;;;;7.10;3.00;;;24.80;53.30;;;;;;5022954;28;20077;-47
2022/09/04 11:15:58;;;;;;;4.50;2.20;;;24.80;52.30;;;;;;5010587;28;20033;-48
2022/09/04 11:18:44;;;;;;;4.95;2.20;;;24.90;51.60;;;;;;5008620;28;20037;-47
2022/09/04 11:21:42;;;;;;;4.07;2.35;;;24.90;52.50;;;;;;5018924;28;20034;-47
2022/09/04 11:24:31;;;;;;;4.65;2.75;;;24.80;53.00;;;;;;5031108;28;20463;-47
2022/09/04 11:27:27;;;;;;;5.00;2.65;;;24.80;52.50;;;;;;5016090;28;20032;-47
2022/09/04 11:30:10;;;;;;;5.03;2.20;;;24.80;52.70;;;;;;5012325;28;20120;-48
2022/09/04 11:32:56;;;;;;;6.70;2.40;;;24.80;53.10;;;;;;5030718;28;20025;-47
2022/09/04 11:35:53;;;;;;;4.50;2.55;;;24.90;50.50;;;;;;5015337;28;20132;-49
2022/09/04 11:38:51;;;;;;;4.45;2.78;;;24.90;53.00;;;;;;5011489;28;20033;-48
2022/09/04 11:41:53;;;;;;;4.28;2.30;;;25.00;52.80;;;;;;5029914;28;20042;-47
2022/09/04 11:44:24;;;;;;;5.45;2.47;;;25.10;51.80;;;;;;5030341;28;20045;-47
2022/09/04 11:47:20;;;;;;;4.57;2.65;;;25.00;50.90;;;;;;5029076;28;20121;-48
2022/09/04 11:49:48;;;;;;;6.63;2.42;;;24.90;50.80;;;;;;5020357;28;20065;-49
2022/09/04 11:52:47;;;;;;;4.78;2.50;;;24.90;52.70;;;;;;5027953;28;20072;-47
2022/09/04 11:55:34;;;;;;;6.13;2.78;;;24.80;51.80;;;;;;5027507;28;20056;-48
2022/09/04 11:58:45;;;;;;;3.95;2.38;;;24.90;52.40;;;;;;5011690;28;20184;-47
2022/09/04 12:01:46;;;;;;;4.88;2.28;;;25.00;52.20;;;;;;5017931;28;20037;-47
2022/09/04 12:04:30;;;;;;;5.45;2.33;;;25.00;50.80;;;;;;5030316;28;20063;-47
2022/09/04 12:07:30;;;;;;;5.03;2.67;;;25.10;48.90;;;;;;5013083;28;20116;-47
2022/09/04 12:10:22;;;;;;;4.93;2.47;;;24.90;49.40;;;;;;5021715;28;20018;-47
2022/09/04 12:12:48;;;;;;;5.07;2.47;;;24.90;50.20;;;;;;5029930;28;20030;-47
2022/09/04 12:15:43;;;;;;;4.60;2.30;;;25.00;51.20;;;;;;5013015;28;20347;-47
2022/09/04 12:18:46;;;;;;;4.30;2.80;;;25.10;50.80;;;;;;5015986;28;20029;-48
2022/09/04 12:21:46;;;;;;;3.90;2.47;;;25.10;51.50;;;;;;5028221;28;20021;-49
2022/09/04 12:24:49;;;;;;;5.20;2.20;;;25.20;50.90;;;;;;5025551;28;20500;-48
2022/09/04 12:27:52;;;;;;;6.05;2.20;;;25.20;50.00;;;;;;5031607;28;20045;-48
2022/09/04 12:30:36;;;;;;;3.38;2.05;;;25.10;50.20;;;;;;5022589;28;20037;-47
2022/09/04 12:33:47;;;;;;;4.65;2.33;;;25.00;50.80;;;;;;5011900;28;20111;-49
2022/09/04 12:36:44;;;;;;;6.45;2.78;;;25.00;50.40;;;;;;5016699;28;20025;-47
2022/09/04 12:39:32;;;;;;;4.45;2.28;;;24.90;48.20;;;;;;5028510;28;20108;-48
2022/09/04 12:42:14;;;;;;;7.18;2.53;;;24.90;49.40;;;;;;5030500;28;20128;-47
2022/09/04 12:45:09;;;;;;;4.70;2.20;;;24.90;51.20;;;;;;5019150;28;20057;-49
2022/09/04 12:48:03;;;;;;;6.80;2.22;;;24.90;50.10;;;;;;5025919;28;20033;-47
2022/09/04 12:50:47;;;;;;;6.35;2.20;;;24.80;48.10;;;;;;5025505;28;20029;-48
2022/09/04 12:53:31;;;;;;;5.32;2.30;;;24.90;48.70;;;;;;5027240;28;20079;-47
2022/09/04 12:56:09;;;;;;;4.72;2.10;;;24.90;49.90;;;;;;5018580;28;20022;-47
2022/09/04 12:59:05;;;;;;;3.83;2.00;;;24.90;47.80;;;;;;5030336;28;20057;-47
2022/09/04 13:02:08;;;;;;;5.35;1.77;;;24.90;48.00;;;;;;5036522;28;20036;-47
2022/09/04 13:04:57;;;;;;;6.78;2.20;;;24.90;47.50;;;;;;5031534;28;20025;-49
2022/09/04 13:07:35;;;;;;;5.60;2.40;;;24.70;47.80;;;;;;5033982;28;20048;-47
2022/09/04 13:10:07;;;;;;;4.22;2.03;;;24.70;49.20;;;;;;5036193;28;20095;-47
2022/09/04 13:13:03;;;;;;;5.22;2.08;;;24.80;49.40;;;;;;5036097;28;20104;-48
2022/09/04 13:15:50;;;;;;;5.07;1.88;;;24.90;49.00;;;;;;5032702;28;20033;-47
2022/09/04 13:18:23;;;;;;;3.47;1.95;;;24.90;50.40;;;;;;5026117;28;20029;-48
2022/09/04 13:21:07;;;;;;;5.88;2.60;;;24.90;47.00;;;;;;5037014;28;20132;-47
2022/09/04 13:24:24;;;;;;;5.45;2.20;;;24.80;47.10;;;;;;5022140;28;20030;-48
2022/09/04 13:27:14;;;;;;;3.03;1.95;;;24.80;47.20;;;;;;5017554;28;20419;-48
2022/09/04 13:30:01;;;;;;;3.47;1.80;;;24.70;49.00;;;;;;5020467;28;20030;-48
2022/09/04 13:33:00;;;;;;;3.85;2.13;;;24.70;50.40;;;;;;5019615;28;20057;-47
2022/09/04 13:36:01;;;;;;;5.47;2.53;;;24.70;48.90;;;;;;5009334;28;20030;-48
2022/09/04 13:39:04;;;;;;;4.80;2.22;;;24.70;50.40;;;;;;5017448;28;20328;-47
2022/09/04 13:42:12;;;;;;;5.82;2.22;;;24.70;50.10;;;;;;5029977;28;20358;-47
2022/09/04 13:44:56;;;;;;;4.40;1.90;;;24.60;48.50;;;;;;5035573;28;20595;-48
2022/09/04 13:47:34;;;;;;;5.20;1.88;;;24.60;47.40;;;;;;5030178;28;20450;-47
2022/09/04 13:50:36;;;;;;;7.50;2.33;;;24.60;48.50;;;;;;5016172;28;20065;-49
2022/09/04 13:53:16;;;;;;;7.38;2.60;;;24.70;49.30;;;;;;5029105;28;20040;-50
2022/09/04 13:55:53;;;;;;;5.82;2.35;;;24.60;49.10;;;;;;5036654;28;20455;-49
2022/09/04 13:58:50;;;;;;;4.70;2.33;;;24.60;49.70;;;;;;5025960;28;20151;-47
2022/09/04 14:01:24;;;;;;;4.78;2.10;;;24.60;49.70;;;;;;5009655;28;20430;-47
2022/09/04 14:04:10;;;;;;;5.70;2.40;;;24.50;49.40;;;;;;5020593;28;20030;-49
2022/09/04 14:06:37;;;;;;;3.92;2.67;;;24.40;49.80;;;;;;5016255;28;20087;-48
2022/09/04 14:09:07;;;;;;;3.85;1.88;;;24.40;48.60;;;;;;5018749;28;20028;-48
2022/09/04 14:12:07;;;;;;;5.25;2.38;;;24.30;49.80;;;;;;5028904;28;20029;-48
2022/09/04 14:14:59;;;;;;;4.70;2.22;;;24.30;50.10;;;;;;5016266;28;20156;-47
2022/09/04 14:18:12;;;;;;;4.70;1.95;;;24.20;49.40;;;;;;5014074;28;20424;-47
2022/09/04 14:20:45;;;;;;;4.55;2.38;;;24.20;50.30;;;;;;5024975;28;20552;-49
2022/09/04 14:23:46;;;;;;;3.92;1.85;;;24.10;49.70;;;;;;5023873;28;20022;-48
2022/09/04 14:26:55;;;;;;;5.78;1.83;;;24.10;49.90;;;;;;5033035;28;20036;-47
2022/09/04 14:29:47;;;;;;;5.28;2.80;;;24.10;49.70;;;;;;5032076;28;20060;-48
2022/09/04 14:32:56;;;;;;;4.70;2.20;;;24.00;50.70;;;;;;5033091;28;20060;-47
2022/09/04 14:36:01;;;;;;;3.40;1.90;;;24.10;49.80;;;;;;5010966;28;20109;-47
2022/09/04 14:39:03;;;;;;;3.30;2.00;;;24.10;50.10;;;;;;5014871;28;20083;-48
2022/09/04 14:42:10;;;;;;;4.28;2.17;;;24.20;49.50;;;;;;5025156;28;20118;-49